Time;durP1;ratioP1;P1;durP2;ratioP2;P2;SDS_P1;SDS_P2;PMS_P1;PMS_P2;Temp;Humidity;BMP_temperature;BMP_pressure;BME280_temperature;BME280_humidity;BME280_pressure;Samples;Min_cycle;Max_cycle;Signal;HPM_P1;HPM_P2
2022/08/29 00:02:10;;;;;;;26.80;7.85;;;;;;;;;;6114812;23;20188;-88
2022/08/29 00:05:15;;;;;;;33.47;7.70;;;;;;;;;;6113977;23;20254;-88
2022/08/29 00:08:21;;;;;;;30.38;7.20;;;;;;;;;;6115327;23;20193;-90
2022/08/29 00:11:26;;;;;;;37.15;9.07;;;;;;;;;;6114465;23;20176;-89
2022/08/29 00:14:31;;;;;;;76.50;8.75;;;;;;;;;;6113941;23;20624;-87
2022/08/29 00:17:37;;;;;;;39.15;7.88;;;;;;;;;;6113368;23;20289;-88
2022/08/29 00:20:42;;;;;;;26.45;7.20;;;;;;;;;;6113844;23;20173;-87
2022/08/29 00:23:47;;;;;;;9.77;6.18;;;;;;;;;;6114175;23;20173;-89
2022/08/29 00:26:52;;;;;;;8.60;4.88;;;;;;;;;;6113735;23;20209;-89
2022/08/29 00:29:57;;;;;;;6.38;4.57;;;;;;;;;;6114039;23;20209;-86
2022/08/29 00:33:06;;;;;;;15.27;5.15;;;;;;;;;;6114158;23;20173;-87
2022/08/29 00:36:11;;;;;;;13.35;5.88;;;;;;;;;;6112745;23;20169;-89
2022/08/29 00:39:16;;;;;;;30.95;5.78;;;;;;;;;;6132562;23;20254;-87
2022/08/29 00:42:21;;;;;;;31.77;6.38;;;;;;;;;;6113463;23;20260;-89
2022/08/29 00:45:25;;;;;;;11.40;5.70;;;;;;;;;;6113284;23;20297;-87
2022/08/29 00:48:34;;;;;;;19.60;6.15;;;;;;;;;;6113692;23;20280;-88
2022/08/29 00:51:40;;;;;;;15.80;6.63;;;;;;;;;;6113628;23;20173;-89
2022/08/29 00:54:48;;;;;;;18.58;6.00;;;;;;;;;;6113287;23;20188;-89
2022/08/29 00:57:56;;;;;;;38.47;6.25;;;;;;;;;;6113953;23;20224;-88
2022/08/29 01:01:01;;;;;;;17.55;6.00;;;;;;;;;;6112737;23;20225;-89
2022/08/29 01:04:07;;;;;;;43.35;7.03;;;;;;;;;;6112460;23;20512;-88
2022/08/29 01:07:13;;;;;;;24.75;6.85;;;;;;;;;;6111723;23;20173;-88
2022/08/29 01:13:39;;;;;;;15.73;7.45;;;;;;;;;;6112709;23;20185;-88
2022/08/29 01:16:45;;;;;;;24.98;6.60;;;;;;;;;;6114209;23;20248;-88
2022/08/29 01:19:53;;;;;;;20.75;6.78;;;;;;;;;;6115689;23;20169;-88
2022/08/29 01:23:02;;;;;;;14.57;7.10;;;;;;;;;;6114589;23;20169;-88
2022/08/29 01:26:10;;;;;;;16.98;6.20;;;;;;;;;;6115492;23;20221;-90
2022/08/29 01:29:15;;;;;;;11.25;6.50;;;;;;;;;;6115607;23;20232;-89
2022/08/29 01:32:20;;;;;;;15.30;7.10;;;;;;;;;;6115247;23;20181;-89
2022/08/29 01:35:28;;;;;;;17.65;7.40;;;;;;;;;;6116025;23;20189;-86
2022/08/29 01:38:33;;;;;;;15.52;7.15;;;;;;;;;;6115191;23;20166;-88
2022/08/29 01:41:40;;;;;;;12.00;6.50;;;;;;;;;;6132605;23;20169;-87
2022/08/29 01:44:49;;;;;;;13.77;5.80;;;;;;;;;;6115430;23;20185;-89
2022/08/29 01:47:53;;;;;;;10.02;5.95;;;;;;;;;;6115292;23;20193;-88
2022/08/29 01:50:59;;;;;;;12.77;6.75;;;;;;;;;;6115269;23;20174;-87
2022/08/29 01:54:06;;;;;;;11.48;6.50;;;;;;;;;;6114245;23;20700;-89
2022/08/29 01:57:13;;;;;;;11.25;6.55;;;;;;;;;;6113666;23;20317;-86
2022/08/29 02:00:18;;;;;;;18.38;7.25;;;;;;;;;;6114388;23;20165;-88
2022/08/29 02:03:24;;;;;;;16.63;7.03;;;;;;;;;;6133214;23;20289;-88
2022/08/29 02:06:29;;;;;;;9.15;5.18;;;;;;;;;;6115275;23;20173;-89
2022/08/29 02:09:34;;;;;;;7.88;5.03;;;;;;;;;;6132470;23;20250;-88
2022/08/29 02:12:42;;;;;;;8.95;4.38;;;;;;;;;;6112074;23;20176;-88
2022/08/29 02:15:47;;;;;;;8.07;4.43;;;;;;;;;;6114312;23;20189;-87
2022/08/29 02:18:52;;;;;;;9.60;5.75;;;;;;;;;;6132061;23;20199;-87
2022/08/29 02:21:57;;;;;;;13.05;7.03;;;;;;;;;;6114442;23;20286;-88
2022/08/29 02:25:39;;;;;;;10.20;5.85;;;;;;;;;;6114647;23;20530;-87
2022/08/29 02:28:29;;;;;;;12.80;6.93;;;;;;;;;;6130478;23;20209;-87
2022/08/29 02:31:35;;;;;;;11.93;7.35;;;;;;;;;;6114416;23;20173;-89
2022/08/29 02:34:42;;;;;;;14.35;6.00;;;;;;;;;;6114133;23;20169;-89
2022/08/29 02:37:47;;;;;;;12.82;6.20;;;;;;;;;;6113806;23;20201;-89
2022/08/29 02:40:53;;;;;;;14.63;7.53;;;;;;;;;;6114554;23;20599;-89
2022/08/29 02:43:59;;;;;;;12.70;7.53;;;;;;;;;;6112298;23;20491;-88
2022/08/29 02:47:04;;;;;;;17.27;8.23;;;;;;;;;;6113992;23;20177;-89
2022/08/29 02:50:10;;;;;;;24.65;9.52;;;;;;;;;;6114069;23;20178;-86
2022/08/29 02:53:16;;;;;;;17.73;8.30;;;;;;;;;;6113546;23;20625;-87
2022/08/29 02:56:21;;;;;;;13.82;8.02;;;;;;;;;;6131989;23;20173;-87
2022/08/29 02:59:28;;;;;;;21.45;8.45;;;;;;;;;;6114125;23;20169;-89
2022/08/29 03:02:33;;;;;;;15.68;7.72;;;;;;;;;;6114570;23;20160;-87
2022/08/29 03:05:39;;;;;;;19.25;9.25;;;;;;;;;;6132471;23;20177;-90
2022/08/29 03:08:43;;;;;;;19.00;8.75;;;;;;;;;;6114458;23;20216;-88
2022/08/29 03:11:51;;;;;;;16.95;9.52;;;;;;;;;;6114079;23;20177;-89
2022/08/29 03:14:57;;;;;;;19.88;9.10;;;;;;;;;;6115200;23;20192;-88
2022/08/29 03:18:03;;;;;;;21.95;10.00;;;;;;;;;;6112365;23;20286;-87
2022/08/29 03:21:14;;;;;;;21.55;10.52;;;;;;;;;;6114464;23;20173;-87
2022/08/29 03:24:19;;;;;;;21.02;10.48;;;;;;;;;;6114538;23;20174;-87
2022/08/29 03:27:23;;;;;;;21.80;10.30;;;;;;;;;;6114554;23;20340;-87
2022/08/29 03:30:30;;;;;;;19.95;11.20;;;;;;;;;;6114072;23;20289;-89
2022/08/29 03:33:35;;;;;;;22.10;11.02;;;;;;;;;;6112111;23;20169;-87
2022/08/29 03:36:39;;;;;;;24.42;10.95;;;;;;;;;;6114080;23;20166;-88
2022/08/29 03:39:44;;;;;;;29.08;11.70;;;;;;;;;;6114188;23;20169;-89
2022/08/29 03:42:49;;;;;;;29.75;11.75;;;;;;;;;;6114175;23;20184;-88
2022/08/29 03:45:55;;;;;;;28.17;11.18;;;;;;;;;;6114109;23;20184;-87
2022/08/29 03:49:00;;;;;;;24.48;11.45;;;;;;;;;;6113747;23;20523;-88
2022/08/29 03:52:06;;;;;;;20.42;9.85;;;;;;;;;;6115395;23;20173;-87
2022/08/29 03:55:10;;;;;;;17.67;8.77;;;;;;;;;;6114420;23;20260;-89
2022/08/29 03:58:15;;;;;;;30.80;9.73;;;;;;;;;;6113348;23;20166;-86
2022/08/29 04:01:32;;;;;;;16.45;9.85;;;;;;;;;;6113620;23;20165;-89
2022/08/29 04:08:00;;;;;;;17.48;8.90;;;;;;;;;;6113786;23;20158;-88
2022/08/29 04:11:09;;;;;;;24.00;9.25;;;;;;;;;;6114239;23;20514;-88
2022/08/29 04:14:14;;;;;;;18.10;9.50;;;;;;;;;;6112762;23;20751;-89
2022/08/29 04:17:47;;;;;;;22.77;10.75;;;;;;;;;;6111718;23;20301;-88
2022/08/29 04:21:01;;;;;;;18.52;10.18;;;;;;;;;;6113930;23;20172;-88
2022/08/29 04:24:06;;;;;;;22.17;10.27;;;;;;;;;;6113723;23;20234;-89
2022/08/29 04:27:11;;;;;;;27.05;9.20;;;;;;;;;;6113959;23;20173;-88
2022/08/29 04:30:18;;;;;;;42.03;9.10;;;;;;;;;;6113493;23;20200;-87
2022/08/29 04:33:27;;;;;;;26.83;8.68;;;;;;;;;;6114073;23;20253;-87
2022/08/29 04:36:34;;;;;;;21.33;9.20;;;;;;;;;;6115928;23;20172;-87
2022/08/29 04:39:39;;;;;;;18.90;9.50;;;;;;;;;;6116172;23;20173;-87
2022/08/29 04:42:45;;;;;;;20.30;9.93;;;;;;;;;;6116061;23;20189;-89
2022/08/29 04:45:54;;;;;;;22.95;9.90;;;;;;;;;;6113548;23;20177;-88
2022/08/29 04:48:59;;;;;;;36.67;11.38;;;;;;;;;;6116112;23;20322;-88
2022/08/29 04:52:05;;;;;;;20.52;9.88;;;;;;;;;;6114334;23;20689;-88
2022/08/29 04:55:13;;;;;;;15.88;9.10;;;;;;;;;;6114436;23;20173;-88
2022/08/29 04:58:18;;;;;;;14.77;8.10;;;;;;;;;;6113969;23;20177;-87
2022/08/29 05:01:24;;;;;;;13.60;7.53;;;;;;;;;;6112515;23;20192;-88
2022/08/29 05:04:29;;;;;;;11.40;6.35;;;;;;;;;;6112203;23;20274;-88
2022/08/29 05:07:35;;;;;;;11.90;6.43;;;;;;;;;;6112680;23;20632;-87
2022/08/29 05:10:43;;;;;;;14.25;6.13;;;;;;;;;;6114154;23;20153;-88
2022/08/29 05:13:50;;;;;;;13.43;6.10;;;;;;;;;;6114491;23;20176;-88
2022/08/29 05:16:56;;;;;;;10.02;6.00;;;;;;;;;;6134118;23;20173;-89
2022/08/29 05:20:02;;;;;;;18.60;8.13;;;;;;;;;;6114228;23;20666;-87
2022/08/29 05:23:09;;;;;;;32.75;11.65;;;;;;;;;;6113500;23;20169;-89
2022/08/29 05:26:14;;;;;;;32.13;12.35;;;;;;;;;;6116355;23;20209;-88
2022/08/29 05:29:20;;;;;;;29.77;11.40;;;;;;;;;;6115383;23;20320;-88
2022/08/29 05:32:25;;;;;;;27.52;11.05;;;;;;;;;;6117358;23;20205;-87
2022/08/29 05:35:30;;;;;;;33.80;12.07;;;;;;;;;;6116742;23;20177;-87
2022/08/29 05:38:37;;;;;;;31.20;12.52;;;;;;;;;;6114584;23;20173;-86
2022/08/29 05:41:42;;;;;;;38.80;12.57;;;;;;;;;;6114218;23;20182;-87
2022/08/29 05:44:47;;;;;;;32.45;13.13;;;;;;;;;;6113739;23;20246;-90
2022/08/29 05:47:52;;;;;;;35.55;14.00;;;;;;;;;;6114787;23;20173;-88
2022/08/29 05:50:57;;;;;;;39.33;13.77;;;;;;;;;;6113903;23;20228;-88
2022/08/29 05:54:04;;;;;;;41.20;14.05;;;;;;;;;;6114318;23;20231;-88
2022/08/29 05:57:10;;;;;;;35.25;13.02;;;;;;;;;;6113202;23;20632;-87
2022/08/29 06:00:15;;;;;;;32.38;13.23;;;;;;;;;;6112437;23;20239;-87
2022/08/29 06:03:21;;;;;;;31.88;13.30;;;;;;;;;;6113058;23;20181;-87
2022/08/29 06:06:27;;;;;;;36.25;13.98;;;;;;;;;;6114032;23;20169;-88
2022/08/29 06:09:33;;;;;;;43.75;14.95;;;;;;;;;;6118095;23;20197;-88
2022/08/29 06:12:39;;;;;;;34.63;14.27;;;;;;;;;;6114724;23;20177;-87
2022/08/29 06:15:44;;;;;;;35.00;13.23;;;;;;;;;;6114404;23;20188;-87
2022/08/29 06:18:49;;;;;;;33.45;13.45;;;;;;;;;;6115758;23;20297;-89
2022/08/29 06:21:55;;;;;;;35.50;14.15;;;;;;;;;;6114699;23;20231;-91
2022/08/29 06:25:02;;;;;;;33.08;13.98;;;;;;;;;;6115650;23;20279;-88
2022/08/29 06:28:07;;;;;;;38.20;14.38;;;;;;;;;;6114993;23;20310;-88
2022/08/29 06:31:13;;;;;;;33.47;14.48;;;;;;;;;;6113040;23;20542;-88
2022/08/29 06:34:18;;;;;;;35.22;14.32;;;;;;;;;;6115910;23;20153;-88
2022/08/29 06:37:24;;;;;;;37.45;15.43;;;;;;;;;;6114690;23;20291;-88
2022/08/29 06:40:30;;;;;;;36.08;14.82;;;;;;;;;;6114703;23;20168;-88
2022/08/29 06:43:35;;;;;;;28.13;13.77;;;;;;;;;;6115417;23;20173;-88
2022/08/29 06:46:43;;;;;;;30.45;13.95;;;;;;;;;;6119780;23;20177;-88
2022/08/29 06:49:49;;;;;;;30.25;13.00;;;;;;;;;;6102929;23;20250;-91
2022/08/29 06:52:54;;;;;;;30.63;13.95;;;;;;;;;;6117297;23;20169;-88
2022/08/29 06:56:03;;;;;;;28.13;13.23;;;;;;;;;;6115771;23;20221;-89
2022/08/29 06:59:08;;;;;;;29.75;12.98;;;;;;;;;;6116239;23;20184;-89
2022/08/29 07:02:14;;;;;;;23.90;12.63;;;;;;;;;;6116519;23;20177;-88
2022/08/29 07:05:19;;;;;;;25.23;12.57;;;;;;;;;;6114486;23;20498;-89
2022/08/29 07:08:24;;;;;;;25.73;13.27;;;;;;;;;;6115794;23;20169;-89
2022/08/29 07:11:32;;;;;;;29.60;13.93;;;;;;;;;;6116135;23;20173;-90
2022/08/29 07:14:38;;;;;;;24.23;12.43;;;;;;;;;;6131488;23;20192;-91
2022/08/29 07:17:42;;;;;;;26.00;11.95;;;;;;;;;;6116493;23;20173;-87
2022/08/29 07:20:48;;;;;;;22.70;11.63;;;;;;;;;;6116477;23;20172;-88
2022/08/29 07:23:53;;;;;;;21.70;12.05;;;;;;;;;;6115421;23;20189;-88
2022/08/29 07:27:00;;;;;;;21.10;12.13;;;;;;;;;;6115366;23;20173;-88
2022/08/29 07:30:05;;;;;;;19.33;10.90;;;;;;;;;;6116336;23;20193;-88
2022/08/29 07:33:10;;;;;;;22.58;12.13;;;;;;;;;;6117145;23;20201;-88
2022/08/29 07:36:15;;;;;;;23.08;12.77;;;;;;;;;;6118127;23;20169;-88
2022/08/29 07:39:21;;;;;;;20.90;11.38;;;;;;;;;;6115841;23;20177;-89
2022/08/29 07:42:27;;;;;;;23.88;11.95;;;;;;;;;;6115629;23;20223;-87
2022/08/29 07:45:32;;;;;;;22.95;12.35;;;;;;;;;;6114814;23;20180;-88
2022/08/29 07:48:38;;;;;;;25.17;11.82;;;;;;;;;;6114809;23;20498;-88
2022/08/29 07:51:43;;;;;;;19.80;11.75;;;;;;;;;;6115204;23;20192;-88
2022/08/29 07:54:48;;;;;;;21.38;11.02;;;;;;;;;;6115115;23;20177;-88
2022/08/29 07:57:54;;;;;;;19.63;11.63;;;;;;;;;;6114302;23;20172;-88
2022/08/29 08:01:00;;;;;;;20.80;11.00;;;;;;;;;;6117715;23;20173;-89
2022/08/29 08:04:05;;;;;;;17.65;11.27;;;;;;;;;;6114701;23;20213;-89
2022/08/29 08:07:10;;;;;;;18.52;11.25;;;;;;;;;;6115731;23;20168;-89
2022/08/29 08:10:16;;;;;;;14.88;10.02;;;;;;;;;;6130203;23;20192;-88
2022/08/29 08:13:22;;;;;;;21.17;10.98;;;;;;;;;;6116218;23;20238;-89
2022/08/29 08:16:29;;;;;;;17.50;9.50;;;;;;;;;;6114810;23;20169;-88
2022/08/29 08:19:34;;;;;;;19.10;10.15;;;;;;;;;;6116145;23;20173;-89
2022/08/29 08:22:39;;;;;;;15.50;9.50;;;;;;;;;;6114004;23;20253;-88
2022/08/29 08:25:44;;;;;;;16.27;9.65;;;;;;;;;;6114031;23;20229;-89
2022/08/29 08:28:52;;;;;;;17.63;10.13;;;;;;;;;;6131072;23;20173;-88
2022/08/29 08:31:59;;;;;;;17.27;9.65;;;;;;;;;;6116914;23;20226;-90
2022/08/29 08:35:05;;;;;;;13.65;8.80;;;;;;;;;;6115171;23;20178;-89
2022/08/29 08:38:10;;;;;;;17.88;9.63;;;;;;;;;;6132834;23;20248;-89
2022/08/29 08:41:24;;;;;;;16.05;9.23;;;;;;;;;;6115931;23;20612;-90
2022/08/29 08:44:50;;;;;;;14.95;8.95;;;;;;;;;;6113152;23;20169;-88
2022/08/29 08:47:59;;;;;;;15.25;7.90;;;;;;;;;;6132121;23;20173;-91
2022/08/29 08:51:06;;;;;;;14.85;8.63;;;;;;;;;;6115360;23;20200;-91
2022/08/29 08:54:15;;;;;;;11.50;7.78;;;;;;;;;;6112848;23;20177;-89
2022/08/29 08:57:20;;;;;;;11.55;6.55;;;;;;;;;;6113789;23;20177;-87
2022/08/29 09:00:28;;;;;;;11.70;7.38;;;;;;;;;;6115407;23;20169;-89
2022/08/29 09:03:57;;;;;;;11.90;6.40;;;;;;;;;;6114978;23;20879;-86
2022/08/29 09:07:08;;;;;;;12.00;5.93;;;;;;;;;;6117398;23;20168;-87
2022/08/29 09:10:19;;;;;;;7.68;5.97;;;;;;;;;;6135423;23;20193;-88
2022/08/29 09:13:40;;;;;;;7.85;5.72;;;;;;;;;;6115426;23;20153;-87
2022/08/29 09:16:50;;;;;;;11.93;5.90;;;;;;;;;;6116759;23;20236;-88
2022/08/29 09:19:56;;;;;;;9.55;5.30;;;;;;;;;;6133639;23;20231;-88
2022/08/29 09:23:03;;;;;;;9.50;5.45;;;;;;;;;;6118388;23;20500;-87
2022/08/29 09:26:08;;;;;;;7.95;5.45;;;;;;;;;;6116441;23;20177;-89
2022/08/29 09:29:19;;;;;;;11.05;5.90;;;;;;;;;;6116290;23;20173;-88
2022/08/29 09:32:26;;;;;;;7.68;5.32;;;;;;;;;;6116623;23;20165;-88
2022/08/29 09:35:36;;;;;;;8.52;5.78;;;;;;;;;;6116220;23;20625;-89
2022/08/29 09:38:41;;;;;;;9.65;5.60;;;;;;;;;;6116791;23;20165;-89
2022/08/29 09:41:52;;;;;;;12.77;6.13;;;;;;;;;;6119374;23;20243;-90
2022/08/29 09:44:58;;;;;;;19.77;6.40;;;;;;;;;;6118769;23;20223;-89
2022/08/29 09:48:16;;;;;;;11.30;6.45;;;;;;;;;;6121035;23;20176;-89
2022/08/29 09:51:23;;;;;;;10.82;6.47;;;;;;;;;;6118679;23;20196;-88
2022/08/29 09:57:54;;;;;;;14.07;8.00;;;;;;;;;;6117798;23;20173;-87
2022/08/29 10:01:01;;;;;;;13.90;7.05;;;;;;;;;;6117738;23;20602;-88
2022/08/29 10:04:08;;;;;;;9.75;6.18;;;;;;;;;;6119223;23;20171;-88
2022/08/29 10:07:17;;;;;;;10.27;6.70;;;;;;;;;;6119898;23;20170;-89
2022/08/29 10:10:23;;;;;;;11.95;5.97;;;;;;;;;;6116049;23;20185;-90
2022/08/29 10:13:34;;;;;;;7.03;5.53;;;;;;;;;;6116755;23;20172;-88
2022/08/29 10:16:44;;;;;;;8.88;6.30;;;;;;;;;;6119427;23;20221;-88
2022/08/29 10:19:51;;;;;;;11.95;5.72;;;;;;;;;;6117625;23;20188;-90
2022/08/29 10:22:59;;;;;;;10.70;6.18;;;;;;;;;;6116906;23;20233;-90
2022/08/29 10:26:18;;;;;;;9.60;6.43;;;;;;;;;;6117140;23;20175;-88
2022/08/29 10:29:29;;;;;;;12.07;4.97;;;;;;;;;;6117548;23;20181;-90
2022/08/29 10:32:42;;;;;;;9.48;6.15;;;;;;;;;;6117606;23;20288;-88
2022/08/29 10:35:53;;;;;;;9.70;5.97;;;;;;;;;;6118934;23;20165;-89
2022/08/29 10:39:02;;;;;;;14.35;5.95;;;;;;;;;;6116497;23;20924;-87
2022/08/29 10:42:09;;;;;;;8.32;5.60;;;;;;;;;;6115369;23;20210;-88
2022/08/29 10:45:17;;;;;;;12.88;5.95;;;;;;;;;;6118475;23;20164;-89
2022/08/29 10:48:26;;;;;;;8.30;5.82;;;;;;;;;;6117905;23;20624;-88
2022/08/29 10:51:36;;;;;;;12.20;5.38;;;;;;;;;;6119352;23;20707;-90
2022/08/29 10:54:46;;;;;;;10.10;5.72;;;;;;;;;;6113517;23;20167;-88
2022/08/29 10:57:58;;;;;;;8.88;4.72;;;;;;;;;;6116036;23;20262;-91
2022/08/29 11:01:07;;;;;;;8.77;4.68;;;;;;;;;;6116464;23;20244;-89
2022/08/29 11:04:17;;;;;;;8.43;5.18;;;;;;;;;;6115832;23;20336;-88
2022/08/29 11:07:28;;;;;;;7.00;4.95;;;;;;;;;;6135666;23;20169;-89
2022/08/29 11:10:39;;;;;;;9.15;5.20;;;;;;;;;;6115197;23;20192;-89
2022/08/29 11:13:45;;;;;;;8.75;5.30;;;;;;;;;;6115563;23;20197;-89
2022/08/29 11:16:52;;;;;;;11.95;5.13;;;;;;;;;;6116263;23;20164;-89
2022/08/29 11:20:03;;;;;;;8.82;5.55;;;;;;;;;;6117322;23;20580;-89
2022/08/29 11:23:13;;;;;;;12.05;5.53;;;;;;;;;;6116785;23;20176;-90
2022/08/29 11:26:22;;;;;;;8.77;4.70;;;;;;;;;;6118522;23;20188;-91
2022/08/29 11:29:34;;;;;;;8.43;4.78;;;;;;;;;;6116219;23;20185;-89
2022/08/29 11:32:46;;;;;;;7.53;5.07;;;;;;;;;;6117412;23;20236;-90
2022/08/29 11:35:54;;;;;;;9.90;4.97;;;;;;;;;;6119593;23;20189;-89
2022/08/29 11:39:15;;;;;;;8.05;4.93;;;;;;;;;;6118275;23;20168;-89
2022/08/29 11:42:24;;;;;;;7.28;4.40;;;;;;;;;;6116491;23;20181;-89
2022/08/29 11:45:30;;;;;;;6.63;4.45;;;;;;;;;;6116712;23;20177;-91
2022/08/29 11:48:37;;;;;;;6.10;4.03;;;;;;;;;;6117602;23;20173;-88
2022/08/29 11:51:42;;;;;;;12.40;4.20;;;;;;;;;;6116835;23;20285;-89
2022/08/29 11:55:02;;;;;;;8.73;4.07;;;;;;;;;;6114497;23;20172;-88
2022/08/29 11:58:25;;;;;;;7.25;4.18;;;;;;;;;;6116139;23;20245;-90
2022/08/29 12:01:54;;;;;;;9.25;4.50;;;;;;;;;;6116380;23;20173;-90
2022/08/29 12:05:14;;;;;;;6.63;4.13;;;;;;;;;;6120001;23;20188;-89
2022/08/29 12:08:30;;;;;;;8.63;3.92;;;;;;;;;;6116861;23;20189;-91
2022/08/29 12:11:53;;;;;;;7.97;3.92;;;;;;;;;;6118383;23;20196;-90
2022/08/29 12:14:58;;;;;;;7.45;3.92;;;;;;;;;;6117387;23;20208;-89
2022/08/29 12:18:24;;;;;;;7.93;4.55;;;;;;;;;;6118594;23;20173;-89
2022/08/29 12:21:46;;;;;;;10.27;5.15;;;;;;;;;;6119034;23;20160;-89
2022/08/29 12:24:52;;;;;;;8.00;4.97;;;;;;;;;;6119996;23;20168;-90
2022/08/29 12:28:03;;;;;;;8.32;5.07;;;;;;;;;;6118027;23;20289;-88
2022/08/29 12:31:29;;;;;;;9.45;5.28;;;;;;;;;;6088428;23;20193;-89
2022/08/29 12:34:44;;;;;;;8.23;4.35;;;;;;;;;;6088524;23;20166;-91
2022/08/29 12:37:53;;;;;;;7.97;4.72;;;;;;;;;;6089936;23;20614;-90
2022/08/29 12:41:05;;;;;;;13.60;4.82;;;;;;;;;;6089453;23;20165;-90
2022/08/29 12:44:13;;;;;;;7.03;4.35;;;;;;;;;;6086578;23;20189;-92
2022/08/29 12:47:23;;;;;;;11.68;4.93;;;;;;;;;;6088581;23;20201;-89
2022/08/29 12:50:29;;;;;;;9.73;4.75;;;;;;;;;;6088701;23;20169;-91
2022/08/29 12:53:35;;;;;;;9.02;4.00;;;;;;;;;;6087525;23;20201;-90
2022/08/29 12:56:43;;;;;;;8.70;4.00;;;;;;;;;;6088848;23;20504;-91
2022/08/29 12:59:49;;;;;;;7.70;3.90;;;;;;;;;;6087690;23;20173;-92
2022/08/29 13:02:59;;;;;;;12.70;4.28;;;;;;;;;;6085894;23;20672;-89
2022/08/29 13:06:07;;;;;;;6.28;3.80;;;;;;;;;;6088373;23;20172;-90
2022/08/29 13:09:24;;;;;;;7.32;4.28;;;;;;;;;;6089632;23;20173;-91
2022/08/29 13:12:31;;;;;;;6.32;4.07;;;;;;;;;;6086805;23;20272;-89
2022/08/29 13:15:36;;;;;;;5.80;3.92;;;;;;;;;;6086647;23;20196;-90
2022/08/29 13:18:43;;;;;;;9.75;4.57;;;;;;;;;;6086068;23;20157;-90
2022/08/29 13:21:48;;;;;;;7.72;4.00;;;;;;;;;;6086908;23;20182;-91
2022/08/29 13:25:02;;;;;;;8.18;4.10;;;;;;;;;;6086570;23;20486;-92
2022/08/29 13:28:13;;;;;;;6.75;4.25;;;;;;;;;;6103757;23;20173;-89
2022/08/29 13:31:27;;;;;;;12.38;4.07;;;;;;;;;;6085450;23;20678;-89
2022/08/29 13:34:32;;;;;;;10.52;4.25;;;;;;;;;;6086910;23;20282;-88
2022/08/29 13:37:38;;;;;;;6.90;3.55;;;;;;;;;;6087914;23;20511;-90
2022/08/29 13:40:44;;;;;;;13.15;4.22;;;;;;;;;;6086394;23;20727;-90
2022/08/29 13:43:51;;;;;;;8.15;4.03;;;;;;;;;;6087467;23;20206;-90
2022/08/29 13:46:59;;;;;;;11.88;4.43;;;;;;;;;;6085061;23;20165;-91
2022/08/29 13:50:09;;;;;;;9.20;4.50;;;;;;;;;;6087323;23;20173;-89
2022/08/29 13:53:14;;;;;;;11.43;4.82;;;;;;;;;;6104769;23;20158;-88
2022/08/29 13:56:21;;;;;;;8.05;3.90;;;;;;;;;;6088220;23;20218;-88
2022/08/29 13:59:36;;;;;;;6.57;4.10;;;;;;;;;;6091299;23;20185;-89
2022/08/29 14:02:41;;;;;;;7.25;3.92;;;;;;;;;;6087170;23;20170;-88
2022/08/29 14:05:46;;;;;;;8.98;4.20;;;;;;;;;;6106175;23;20178;-88
2022/08/29 14:08:52;;;;;;;9.45;4.60;;;;;;;;;;6089321;23;20174;-90
2022/08/29 14:11:57;;;;;;;11.52;3.97;;;;;;;;;;6105975;23;20197;-90
2022/08/29 14:15:04;;;;;;;5.60;3.33;;;;;;;;;;6089924;23;20266;-88
2022/08/29 14:18:10;;;;;;;4.22;3.17;;;;;;;;;;6087331;23;20669;-88
2022/08/29 14:21:16;;;;;;;6.55;3.50;;;;;;;;;;6087642;23;20177;-92
2022/08/29 14:24:21;;;;;;;10.27;4.18;;;;;;;;;;6086549;23;20173;-91
2022/08/29 14:27:26;;;;;;;4.57;3.42;;;;;;;;;;6091891;23;20265;-92
2022/08/29 14:30:33;;;;;;;23.05;8.30;;;;;;;;;;6092438;23;20197;-89
2022/08/29 14:33:38;;;;;;;6.65;2.72;;;;;;;;;;6092918;23;20221;-90
2022/08/29 14:36:43;;;;;;;7.28;3.33;;;;;;;;;;6109751;23;20169;-89
2022/08/29 14:39:49;;;;;;;6.88;2.40;;;;;;;;;;6091358;23;20169;-89
2022/08/29 14:42:54;;;;;;;14.73;3.45;;;;;;;;;;6091834;23;20238;-90
2022/08/29 14:46:00;;;;;;;3.85;2.40;;;;;;;;;;6091079;23;20168;-91
2022/08/29 14:49:05;;;;;;;7.97;2.83;;;;;;;;;;6090908;23;20169;-89
2022/08/29 14:52:13;;;;;;;5.80;2.90;;;;;;;;;;6090630;23;20318;-89
2022/08/29 14:55:19;;;;;;;7.07;2.72;;;;;;;;;;6093269;23;20164;-88
2022/08/29 14:58:24;;;;;;;6.50;2.70;;;;;;;;;;6089391;23;20601;-88
2022/08/29 15:01:30;;;;;;;6.90;3.05;;;;;;;;;;6092213;23;20226;-89
2022/08/29 15:04:36;;;;;;;5.88;3.13;;;;;;;;;;6090031;23;20181;-87
2022/08/29 15:07:41;;;;;;;8.05;3.30;;;;;;;;;;6091513;23;20198;-89
2022/08/29 15:10:46;;;;;;;5.43;2.78;;;;;;;;;;6089644;23;20227;-88
2022/08/29 15:13:51;;;;;;;4.50;3.00;;;;;;;;;;6085713;23;20173;-91
2022/08/29 15:16:58;;;;;;;4.05;2.60;;;;;;;;;;6088362;23;20177;-88
2022/08/29 15:20:04;;;;;;;5.05;2.75;;;;;;;;;;6091126;23;20194;-90
2022/08/29 15:23:11;;;;;;;6.72;3.53;;;;;;;;;;6089921;23;20261;-88
2022/08/29 15:26:16;;;;;;;6.38;3.20;;;;;;;;;;6090043;23;20169;-88
2022/08/29 15:29:21;;;;;;;9.13;3.10;;;;;;;;;;6107816;23;20184;-88
2022/08/29 15:32:28;;;;;;;7.22;2.50;;;;;;;;;;6091476;23;20302;-88
2022/08/29 15:35:33;;;;;;;6.63;2.67;;;;;;;;;;6088832;23;20189;-89
2022/08/29 15:38:38;;;;;;;4.30;2.50;;;;;;;;;;6088741;23;20174;-90
2022/08/29 15:41:43;;;;;;;7.80;3.50;;;;;;;;;;6087544;23;20217;-89
2022/08/29 15:44:48;;;;;;;4.15;3.08;;;;;;;;;;6089474;23;20172;-88
2022/08/29 15:48:00;;;;;;;5.85;3.30;;;;;;;;;;6090830;23;20213;-87
2022/08/29 15:51:08;;;;;;;5.75;3.00;;;;;;;;;;6090976;23;20173;-88
2022/08/29 15:54:15;;;;;;;5.65;3.30;;;;;;;;;;6105970;23;20166;-90
2022/08/29 15:57:20;;;;;;;7.72;3.35;;;;;;;;;;6089931;23;20182;-89
2022/08/29 16:00:31;;;;;;;6.13;3.17;;;;;;;;;;6086967;23;20174;-89
2022/08/29 16:03:38;;;;;;;6.53;3.10;;;;;;;;;;6090782;23;20185;-90
2022/08/29 16:06:43;;;;;;;8.50;3.53;;;;;;;;;;6090734;23;20206;-88
2022/08/29 16:09:48;;;;;;;5.25;3.30;;;;;;;;;;6090888;23;20170;-88
2022/08/29 16:12:53;;;;;;;5.70;3.35;;;;;;;;;;6091142;23;20251;-89
2022/08/29 16:15:58;;;;;;;4.53;3.05;;;;;;;;;;6090366;23;20214;-89
2022/08/29 16:19:05;;;;;;;4.88;3.35;;;;;;;;;;6105118;23;20170;-89
2022/08/29 16:22:10;;;;;;;4.53;3.25;;;;;;;;;;6088222;23;20170;-88
2022/08/29 16:25:16;;;;;;;6.25;3.38;;;;;;;;;;6088850;23;20174;-88
2022/08/29 16:28:21;;;;;;;6.00;3.13;;;;;;;;;;6090497;23;20221;-88
2022/08/29 16:31:26;;;;;;;6.05;3.08;;;;;;;;;;6089688;23;20297;-88
2022/08/29 16:34:33;;;;;;;9.90;3.65;;;;;;;;;;6088097;23;20298;-86
2022/08/29 16:37:38;;;;;;;6.47;3.47;;;;;;;;;;6087503;23;20179;-89
2022/08/29 16:40:43;;;;;;;7.70;3.72;;;;;;;;;;6088886;23;20174;-87
2022/08/29 16:43:50;;;;;;;8.00;3.45;;;;;;;;;;6088355;23;20170;-88
2022/08/29 16:47:00;;;;;;;6.00;3.50;;;;;;;;;;6085737;23;20617;-89
2022/08/29 16:50:07;;;;;;;6.32;3.40;;;;;;;;;;6088653;23;20158;-88
2022/08/29 16:53:12;;;;;;;6.72;3.38;;;;;;;;;;6085600;23;20676;-88
2022/08/29 16:56:18;;;;;;;4.85;3.53;;;;;;;;;;6087079;23;20174;-87
2022/08/29 16:59:23;;;;;;;6.57;4.03;;;;;;;;;;6086661;23;20184;-89
2022/08/29 17:02:29;;;;;;;9.85;4.18;;;;;;;;;;6088891;23;20173;-88
2022/08/29 17:05:36;;;;;;;6.30;3.53;;;;;;;;;;6087518;23;20178;-88
2022/08/29 17:17:52;;;;;;;9.48;3.75;;;;;;;;;;6086187;23;20515;-91
2022/08/29 17:24:27;;;;;;;11.00;4.80;;;;;;;;;;6089225;23;20166;-88
2022/08/29 17:27:32;;;;;;;9.60;4.68;;;;;;;;;;6088129;23;20497;-88
2022/08/29 17:30:37;;;;;;;10.70;4.10;;;;;;;;;;6091633;23;20625;-89
2022/08/29 17:33:42;;;;;;;8.57;4.63;;;;;;;;;;6085006;23;20741;-90
2022/08/29 17:36:52;;;;;;;16.08;6.93;;;;;;;;;;6086602;23;20194;-90
2022/08/29 17:39:57;;;;;;;12.38;4.78;;;;;;;;;;6085626;23;20510;-87
2022/08/29 17:43:03;;;;;;;6.57;4.40;;;;;;;;;;6085890;23;20174;-89
2022/08/29 17:46:08;;;;;;;15.95;4.80;;;;;;;;;;6086829;23;20175;-89
2022/08/29 17:49:13;;;;;;;13.82;5.43;;;;;;;;;;6085917;23;20218;-89
2022/08/29 17:52:20;;;;;;;9.43;4.60;;;;;;;;;;6085162;23;20524;-87
2022/08/29 17:55:40;;;;;;;8.70;6.22;;;;;;;;;;6085551;23;20213;-89
2022/08/29 17:58:45;;;;;;;9.88;5.47;;;;;;;;;;6084134;23;20178;-87
2022/08/29 18:01:51;;;;;;;11.82;5.00;;;;;;;;;;6087476;23;20570;-89
2022/08/29 18:04:56;;;;;;;7.80;5.05;;;;;;;;;;6086937;23;20177;-89
2022/08/29 18:08:02;;;;;;;12.88;5.05;;;;;;;;;;6087218;23;20218;-87
2022/08/29 18:11:10;;;;;;;9.45;5.50;;;;;;;;;;6086095;23;20337;-88
2022/08/29 18:14:16;;;;;;;9.80;5.30;;;;;;;;;;6101868;23;20573;-88
2022/08/29 18:17:22;;;;;;;10.00;5.13;;;;;;;;;;6086456;23;20156;-88
2022/08/29 18:20:27;;;;;;;9.25;4.82;;;;;;;;;;6087271;23;20218;-88
2022/08/29 18:23:36;;;;;;;8.00;5.00;;;;;;;;;;6086695;23;20166;-89
2022/08/29 18:26:42;;;;;;;9.00;5.28;;;;;;;;;;6085400;23;20174;-88
2022/08/29 18:29:47;;;;;;;11.52;5.35;;;;;;;;;;6086696;23;20503;-87
2022/08/29 18:32:52;;;;;;;11.70;5.60;;;;;;;;;;6087017;23;20245;-87
2022/08/29 18:35:57;;;;;;;9.40;5.57;;;;;;;;;;6087270;23;20170;-87
2022/08/29 18:39:04;;;;;;;11.65;5.70;;;;;;;;;;6103294;23;20228;-87
2022/08/29 18:42:09;;;;;;;16.15;5.80;;;;;;;;;;6086415;23;20166;-87
2022/08/29 18:45:14;;;;;;;14.10;5.60;;;;;;;;;;6089430;23;20170;-87
2022/08/29 18:48:20;;;;;;;46.47;33.75;;;;;;;;;;6086391;23;20213;-89
2022/08/29 18:51:26;;;;;;;10.07;5.50;;;;;;;;;;6086773;23;20170;-88
2022/08/29 18:54:32;;;;;;;11.32;5.60;;;;;;;;;;6104132;23;20609;-90